sensor_id;sensor_type;location;lat;lon;timestamp;P1;durP1;ratioP1;P2;durP2;ratioP2
9938;SDS011;5008;50.656;7.188;2023-05-10T03:36:30;2.03;;;1.20;;
9938;SDS011;5008;50.656;7.188;2023-05-10T03:38:59;2.10;;;1.30;;
9938;SDS011;5008;50.656;7.188;2023-05-10T03:41:26;1.30;;;1.07;;
9938;SDS011;5008;50.656;7.188;2023-05-10T03:43:53;1.03;;;1.03;;
9938;SDS011;5008;50.656;7.188;2023-05-10T03:46:20;1.30;;;1.20;;
9938;SDS011;5008;50.656;7.188;2023-05-10T03:48:48;1.73;;;1.30;;
9938;SDS011;5008;50.656;7.188;2023-05-10T03:51:14;1.80;;;1.20;;
9938;SDS011;5008;50.656;7.188;2023-05-10T03:53:42;1.43;;;1.33;;
9938;SDS011;5008;50.656;7.188;2023-05-10T03:56:09;1.93;;;1.30;;
9938;SDS011;5008;50.656;7.188;2023-05-10T03:58:36;1.40;;;1.30;;
9938;SDS011;5008;50.656;7.188;2023-05-10T04:01:03;1.60;;;1.40;;
9938;SDS011;5008;50.656;7.188;2023-05-10T04:03:30;1.40;;;1.30;;
9938;SDS011;5008;50.656;7.188;2023-05-10T04:06:00;1.57;;;1.43;;
9938;SDS011;5008;50.656;7.188;2023-05-10T04:08:27;1.40;;;1.30;;
9938;SDS011;5008;50.656;7.188;2023-05-10T04:10:55;1.70;;;1.60;;
9938;SDS011;5008;50.656;7.188;2023-05-10T04:13:31;1.60;;;1.30;;
9938;SDS011;5008;50.656;7.188;2023-05-10T04:15:58;1.93;;;1.73;;
9938;SDS011;5008;50.656;7.188;2023-05-10T04:18:25;1.83;;;1.73;;
9938;SDS011;5008;50.656;7.188;2023-05-10T04:20:52;3.63;;;2.07;;
9938;SDS011;5008;50.656;7.188;2023-05-10T04:23:18;2.00;;;1.90;;
9938;SDS011;5008;50.656;7.188;2023-05-10T04:25:45;2.10;;;1.90;;
9938;SDS011;5008;50.656;7.188;2023-05-10T04:28:13;2.40;;;2.20;;
9938;SDS011;5008;50.656;7.188;2023-05-10T04:30:40;1.80;;;1.67;;
9938;SDS011;5008;50.656;7.188;2023-05-10T04:33:07;2.77;;;2.10;;
9938;SDS011;5008;50.656;7.188;2023-05-10T04:35:34;2.50;;;2.13;;
9938;SDS011;5008;50.656;7.188;2023-05-10T04:38:01;3.93;;;2.50;;
9938;SDS011;5008;50.656;7.188;2023-05-10T04:40:28;3.13;;;2.80;;
9938;SDS011;5008;50.656;7.188;2023-05-10T04:42:54;3.63;;;2.63;;
9938;SDS011;5008;50.656;7.188;2023-05-10T04:45:23;3.83;;;2.50;;
9938;SDS011;5008;50.656;7.188;2023-05-10T04:47:49;3.33;;;2.67;;
9938;SDS011;5008;50.656;7.188;2023-05-10T04:50:16;2.60;;;2.27;;
9938;SDS011;5008;50.656;7.188;2023-05-10T04:52:44;2.63;;;2.43;;
9938;SDS011;5008;50.656;7.188;2023-05-10T04:55:10;3.70;;;3.07;;
9938;SDS011;5008;50.656;7.188;2023-05-10T04:57:37;3.20;;;2.90;;
9938;SDS011;5008;50.656;7.188;2023-05-10T05:00:05;3.23;;;2.93;;
9938;SDS011;5008;50.656;7.188;2023-05-10T05:02:34;3.93;;;2.80;;
9938;SDS011;5008;50.656;7.188;2023-05-10T05:05:01;3.13;;;2.70;;
9938;SDS011;5008;50.656;7.188;2023-05-10T05:07:28;3.03;;;2.73;;
9938;SDS011;5008;50.656;7.188;2023-05-10T05:09:55;3.03;;;2.73;;
9938;SDS011;5008;50.656;7.188;2023-05-10T05:12:24;3.33;;;2.87;;
9938;SDS011;5008;50.656;7.188;2023-05-10T05:14:51;3.87;;;3.30;;
9938;SDS011;5008;50.656;7.188;2023-05-10T05:17:18;3.57;;;3.27;;
9938;SDS011;5008;50.656;7.188;2023-05-10T05:19:46;3.73;;;3.20;;
9938;SDS011;5008;50.656;7.188;2023-05-10T05:22:13;3.40;;;3.10;;
9938;SDS011;5008;50.656;7.188;2023-05-10T05:24:40;4.20;;;3.33;;
9938;SDS011;5008;50.656;7.188;2023-05-10T05:27:07;4.20;;;3.47;;
9938;SDS011;5008;50.656;7.188;2023-05-10T05:29:34;4.57;;;3.50;;
9938;SDS011;5008;50.656;7.188;2023-05-10T05:32:02;3.90;;;3.60;;
9938;SDS011;5008;50.656;7.188;2023-05-10T05:34:29;3.57;;;3.27;;
9938;SDS011;5008;50.656;7.188;2023-05-10T05:36:57;3.43;;;3.13;;
9938;SDS011;5008;50.656;7.188;2023-05-10T05:39:24;3.70;;;3.30;;
9938;SDS011;5008;50.656;7.188;2023-05-10T05:41:51;5.33;;;3.30;;
9938;SDS011;5008;50.656;7.188;2023-05-10T05:44:17;3.60;;;3.30;;
9938;SDS011;5008;50.656;7.188;2023-05-10T05:46:55;4.57;;;3.77;;
9938;SDS011;5008;50.656;7.188;2023-05-10T05:49:22;4.90;;;3.60;;
9938;SDS011;5008;50.656;7.188;2023-05-10T05:51:49;3.57;;;3.27;;
9938;SDS011;5008;50.656;7.188;2023-05-10T05:54:17;4.23;;;3.40;;
9938;SDS011;5008;50.656;7.188;2023-05-10T05:56:44;3.57;;;3.27;;
9938;SDS011;5008;50.656;7.188;2023-05-10T05:59:11;4.93;;;3.60;;
9938;SDS011;5008;50.656;7.188;2023-05-10T06:04:28;3.73;;;3.33;;
9938;SDS011;5008;50.656;7.188;2023-05-10T06:06:55;3.87;;;3.47;;
9938;SDS011;5008;50.656;7.188;2023-05-10T06:09:23;4.10;;;3.70;;
9938;SDS011;5008;50.656;7.188;2023-05-10T06:11:50;5.27;;;3.60;;
9938;SDS011;5008;50.656;7.188;2023-05-10T06:14:17;4.30;;;3.40;;
9938;SDS011;5008;50.656;7.188;2023-05-10T06:16:46;3.77;;;3.47;;
9938;SDS011;5008;50.656;7.188;2023-05-10T06:19:13;4.13;;;3.70;;
9938;SDS011;5008;50.656;7.188;2023-05-10T06:21:39;3.40;;;3.10;;
9938;SDS011;5008;50.656;7.188;2023-05-10T06:24:06;4.50;;;3.10;;
9938;SDS011;5008;50.656;7.188;2023-05-10T06:26:35;3.97;;;3.53;;
9938;SDS011;5008;50.656;7.188;2023-05-10T06:29:01;4.30;;;3.20;;
9938;SDS011;5008;50.656;7.188;2023-05-10T06:31:28;3.37;;;3.07;;
9938;SDS011;5008;50.656;7.188;2023-05-10T06:33:55;3.40;;;3.10;;
9938;SDS011;5008;50.656;7.188;2023-05-10T06:36:22;4.40;;;3.20;;
9938;SDS011;5008;50.656;7.188;2023-05-10T06:38:51;3.77;;;2.97;;
9938;SDS011;5008;50.656;7.188;2023-05-10T06:41:18;3.63;;;3.33;;
9938;SDS011;5008;50.656;7.188;2023-05-10T06:46:25;3.00;;;2.80;;
9938;SDS011;5008;50.656;7.188;2023-05-10T06:48:52;3.73;;;3.43;;
9938;SDS011;5008;50.656;7.188;2023-05-10T06:51:19;4.00;;;3.63;;
9938;SDS011;5008;50.656;7.188;2023-05-10T06:53:46;4.43;;;3.60;;
9938;SDS011;5008;50.656;7.188;2023-05-10T06:56:13;4.50;;;4.10;;
9938;SDS011;5008;50.656;7.188;2023-05-10T06:58:40;3.97;;;3.60;;
9938;SDS011;5008;50.656;7.188;2023-05-10T07:01:08;5.00;;;4.10;;
9938;SDS011;5008;50.656;7.188;2023-05-10T07:03:35;4.60;;;4.10;;
9938;SDS011;5008;50.656;7.188;2023-05-10T07:06:02;4.85;;;4.07;;
9938;SDS011;5008;50.656;7.188;2023-05-10T07:08:29;4.63;;;3.70;;
9938;SDS011;5008;50.656;7.188;2023-05-10T07:11:00;4.43;;;4.03;;
9938;SDS011;5008;50.656;7.188;2023-05-10T07:13:28;4.23;;;3.83;;
9938;SDS011;5008;50.656;7.188;2023-05-10T07:15:56;3.93;;;3.60;;
9938;SDS011;5008;50.656;7.188;2023-05-10T07:18:24;4.90;;;4.43;;
9938;SDS011;5008;50.656;7.188;2023-05-10T07:20:52;7.77;;;3.87;;
9938;SDS011;5008;50.656;7.188;2023-05-10T07:23:19;6.37;;;4.77;;
9938;SDS011;5008;50.656;7.188;2023-05-10T07:25:46;7.90;;;4.90;;
9938;SDS011;5008;50.656;7.188;2023-05-10T07:28:13;5.70;;;5.20;;
9938;SDS011;5008;50.656;7.188;2023-05-10T07:30:41;5.43;;;4.80;;
9938;SDS011;5008;50.656;7.188;2023-05-10T07:33:08;6.20;;;4.53;;
9938;SDS011;5008;50.656;7.188;2023-05-10T07:35:37;5.97;;;5.37;;
9938;SDS011;5008;50.656;7.188;2023-05-10T07:38:04;5.00;;;4.43;;
9938;SDS011;5008;50.656;7.188;2023-05-10T07:40:33;5.03;;;4.53;;
9938;SDS011;5008;50.656;7.188;2023-05-10T07:43:00;4.53;;;4.10;;
9938;SDS011;5008;50.656;7.188;2023-05-10T07:45:27;5.33;;;4.83;;
9938;SDS011;5008;50.656;7.188;2023-05-10T07:47:54;4.78;;;4.13;;
9938;SDS011;5008;50.656;7.188;2023-05-10T07:50:31;4.63;;;4.15;;
9938;SDS011;5008;50.656;7.188;2023-05-10T07:53:00;4.72;;;4.32;;
9938;SDS011;5008;50.656;7.188;2023-05-10T07:55:26;4.20;;;3.80;;
9938;SDS011;5008;50.656;7.188;2023-05-10T07:57:53;4.10;;;3.70;;
9938;SDS011;5008;50.656;7.188;2023-05-10T08:00:20;5.38;;;4.63;;
9938;SDS011;5008;50.656;7.188;2023-05-10T08:02:47;5.18;;;4.22;;
9938;SDS011;5008;50.656;7.188;2023-05-10T08:05:14;4.65;;;4.25;;
9938;SDS011;5008;50.656;7.188;2023-05-10T08:07:41;4.23;;;3.93;;
9938;SDS011;5008;50.656;7.188;2023-05-10T08:10:10;4.57;;;4.17;;
9938;SDS011;5008;50.656;7.188;2023-05-10T08:12:37;4.00;;;3.57;;
9938;SDS011;5008;50.656;7.188;2023-05-10T08:15:04;6.28;;;3.30;;
9938;SDS011;5008;50.656;7.188;2023-05-10T08:17:32;3.10;;;2.80;;
9938;SDS011;5008;50.656;7.188;2023-05-10T08:19:58;3.53;;;3.17;;
9938;SDS011;5008;50.656;7.188;2023-05-10T08:22:25;2.90;;;2.60;;
9938;SDS011;5008;50.656;7.188;2023-05-10T08:24:52;2.58;;;2.38;;
9938;SDS011;5008;50.656;7.188;2023-05-10T08:27:20;2.90;;;2.70;;
9938;SDS011;5008;50.656;7.188;2023-05-10T08:29:47;3.70;;;3.00;;
9938;SDS011;5008;50.656;7.188;2023-05-10T08:32:14;3.88;;;2.85;;
9938;SDS011;5008;50.656;7.188;2023-05-10T08:34:41;3.25;;;2.80;;
9938;SDS011;5008;50.656;7.188;2023-05-10T08:37:07;3.20;;;2.90;;
9938;SDS011;5008;50.656;7.188;2023-05-10T08:39:35;3.08;;;2.80;;
9938;SDS011;5008;50.656;7.188;2023-05-10T08:42:03;2.72;;;2.53;;
9938;SDS011;5008;50.656;7.188;2023-05-10T08:44:33;3.15;;;2.70;;
9938;SDS011;5008;50.656;7.188;2023-05-10T08:47:02;3.50;;;3.20;;
9938;SDS011;5008;50.656;7.188;2023-05-10T08:49:31;2.50;;;2.30;;
9938;SDS011;5008;50.656;7.188;2023-05-10T08:51:59;3.92;;;3.30;;
9938;SDS011;5008;50.656;7.188;2023-05-10T08:54:29;4.68;;;4.18;;
9938;SDS011;5008;50.656;7.188;2023-05-10T08:56:57;5.15;;;4.05;;
9938;SDS011;5008;50.656;7.188;2023-05-10T08:59:24;4.80;;;4.15;;
9938;SDS011;5008;50.656;7.188;2023-05-10T09:01:52;4.88;;;4.15;;
9938;SDS011;5008;50.656;7.188;2023-05-10T09:04:21;6.35;;;3.42;;
9938;SDS011;5008;50.656;7.188;2023-05-10T09:06:49;3.50;;;2.00;;
9938;SDS011;5008;50.656;7.188;2023-05-10T09:09:16;3.77;;;1.37;;
9938;SDS011;5008;50.656;7.188;2023-05-10T09:11:44;5.70;;;2.10;;
9938;SDS011;5008;50.656;7.188;2023-05-10T09:14:11;1.53;;;0.90;;
9938;SDS011;5008;50.656;7.188;2023-05-10T09:16:39;1.40;;;0.90;;
9938;SDS011;5008;50.656;7.188;2023-05-10T09:19:07;1.93;;;0.80;;
9938;SDS011;5008;50.656;7.188;2023-05-10T09:21:35;2.60;;;1.00;;
9938;SDS011;5008;50.656;7.188;2023-05-10T09:24:03;0.60;;;0.60;;
9938;SDS011;5008;50.656;7.188;2023-05-10T09:26:31;2.33;;;0.87;;
9938;SDS011;5008;50.656;7.188;2023-05-10T09:28:59;1.57;;;0.90;;
9938;SDS011;5008;50.656;7.188;2023-05-10T09:34:11;1.20;;;0.70;;
9938;SDS011;5008;50.656;7.188;2023-05-10T09:36:50;2.90;;;0.67;;
9938;SDS011;5008;50.656;7.188;2023-05-10T09:39:17;2.37;;;0.73;;
9938;SDS011;5008;50.656;7.188;2023-05-10T09:41:45;0.80;;;0.80;;
9938;SDS011;5008;50.656;7.188;2023-05-10T09:44:11;0.70;;;0.70;;
9938;SDS011;5008;50.656;7.188;2023-05-10T09:46:48;1.47;;;1.00;;
9938;SDS011;5008;50.656;7.188;2023-05-10T09:49:17;2.33;;;2.13;;
9938;SDS011;5008;50.656;7.188;2023-05-10T09:51:44;1.43;;;1.23;;
9938;SDS011;5008;50.656;7.188;2023-05-10T09:54:15;1.80;;;1.00;;
9938;SDS011;5008;50.656;7.188;2023-05-10T09:56:42;1.70;;;1.17;;
9938;SDS011;5008;50.656;7.188;2023-05-10T09:59:10;1.17;;;1.07;;
9938;SDS011;5008;50.656;7.188;2023-05-10T10:01:38;1.37;;;0.97;;
9938;SDS011;5008;50.656;7.188;2023-05-10T10:04:06;0.90;;;0.90;;
9938;SDS011;5008;50.656;7.188;2023-05-10T10:06:38;1.30;;;1.20;;
9938;SDS011;5008;50.656;7.188;2023-05-10T10:09:09;2.17;;;1.60;;
9938;SDS011;5008;50.656;7.188;2023-05-10T10:11:36;3.23;;;1.77;;
9938;SDS011;5008;50.656;7.188;2023-05-10T10:14:04;1.37;;;1.27;;
9938;SDS011;5008;50.656;7.188;2023-05-10T10:19:22;1.50;;;1.40;;
9938;SDS011;5008;50.656;7.188;2023-05-10T10:21:50;1.33;;;1.13;;
9938;SDS011;5008;50.656;7.188;2023-05-10T10:24:17;3.75;;;1.20;;
9938;SDS011;5008;50.656;7.188;2023-05-10T10:26:44;1.30;;;1.20;;
9938;SDS011;5008;50.656;7.188;2023-05-10T10:29:16;1.65;;;1.55;;
9938;SDS011;5008;50.656;7.188;2023-05-10T10:31:51;2.25;;;1.50;;
9938;SDS011;5008;50.656;7.188;2023-05-10T10:34:25;1.80;;;1.63;;
9938;SDS011;5008;50.656;7.188;2023-05-10T10:39:39;1.58;;;1.13;;
9938;SDS011;5008;50.656;7.188;2023-05-10T10:42:06;1.75;;;1.00;;
9938;SDS011;5008;50.656;7.188;2023-05-10T10:44:37;0.60;;;0.60;;
9938;SDS011;5008;50.656;7.188;2023-05-10T10:50:05;1.10;;;1.00;;
9938;SDS011;5008;50.656;7.188;2023-05-10T10:52:36;1.55;;;1.40;;
9938;SDS011;5008;50.656;7.188;2023-05-10T10:55:05;1.10;;;1.00;;
9938;SDS011;5008;50.656;7.188;2023-05-10T10:57:42;0.90;;;0.90;;
9938;SDS011;5008;50.656;7.188;2023-05-10T11:00:17;1.00;;;1.00;;
9938;SDS011;5008;50.656;7.188;2023-05-10T11:03:03;0.82;;;0.82;;
9938;SDS011;5008;50.656;7.188;2023-05-10T11:05:36;2.05;;;0.90;;
9938;SDS011;5008;50.656;7.188;2023-05-10T11:08:13;0.82;;;0.82;;
9938;SDS011;5008;50.656;7.188;2023-05-10T11:13:37;0.80;;;0.80;;
9938;SDS011;5008;50.656;7.188;2023-05-10T11:16:17;0.70;;;0.70;;
9938;SDS011;5008;50.656;7.188;2023-05-10T11:18:51;0.90;;;0.90;;
9938;SDS011;5008;50.656;7.188;2023-05-10T11:21:27;0.85;;;0.85;;
9938;SDS011;5008;50.656;7.188;2023-05-10T11:23:55;2.97;;;1.00;;
9938;SDS011;5008;50.656;7.188;2023-05-10T11:26:23;1.25;;;1.25;;
9938;SDS011;5008;50.656;7.188;2023-05-10T11:28:51;1.20;;;1.20;;
9938;SDS011;5008;50.656;7.188;2023-05-10T11:31:20;0.90;;;0.90;;
9938;SDS011;5008;50.656;7.188;2023-05-10T11:33:49;0.90;;;0.90;;
9938;SDS011;5008;50.656;7.188;2023-05-10T11:36:18;1.05;;;1.05;;
9938;SDS011;5008;50.656;7.188;2023-05-10T11:38:47;1.25;;;1.23;;
9938;SDS011;5008;50.656;7.188;2023-05-10T11:41:16;1.35;;;1.10;;
9938;SDS011;5008;50.656;7.188;2023-05-10T11:43:46;0.90;;;0.90;;
9938;SDS011;5008;50.656;7.188;2023-05-10T11:46:13;0.80;;;0.80;;
9938;SDS011;5008;50.656;7.188;2023-05-10T11:48:42;1.15;;;1.08;;
9938;SDS011;5008;50.656;7.188;2023-05-10T11:51:09;1.10;;;0.90;;
9938;SDS011;5008;50.656;7.188;2023-05-10T11:53:37;2.50;;;1.08;;
9938;SDS011;5008;50.656;7.188;2023-05-10T11:56:04;0.82;;;0.82;;
9938;SDS011;5008;50.656;7.188;2023-05-10T11:58:43;1.00;;;0.90;;
9938;SDS011;5008;50.656;7.188;2023-05-10T12:01:14;0.95;;;0.95;;
9938;SDS011;5008;50.656;7.188;2023-05-10T12:03:41;3.60;;;1.48;;
9938;SDS011;5008;50.656;7.188;2023-05-10T12:06:11;2.67;;;1.83;;
9938;SDS011;5008;50.656;7.188;2023-05-10T12:08:43;1.40;;;1.30;;
9938;SDS011;5008;50.656;7.188;2023-05-10T12:11:11;0.90;;;0.90;;
9938;SDS011;5008;50.656;7.188;2023-05-10T12:13:50;1.65;;;1.00;;
9938;SDS011;5008;50.656;7.188;2023-05-10T12:16:18;0.82;;;0.82;;
9938;SDS011;5008;50.656;7.188;2023-05-10T12:18:48;0.75;;;0.75;;
9938;SDS011;5008;50.656;7.188;2023-05-10T12:21:16;0.80;;;0.80;;
9938;SDS011;5008;50.656;7.188;2023-05-10T12:23:43;1.00;;;0.80;;
9938;SDS011;5008;50.656;7.188;2023-05-10T12:26:12;1.17;;;0.73;;
9938;SDS011;5008;50.656;7.188;2023-05-10T12:28:39;1.40;;;0.82;;
9938;SDS011;5008;50.656;7.188;2023-05-10T12:31:13;1.10;;;1.10;;
9938;SDS011;5008;50.656;7.188;2023-05-10T12:33:40;1.00;;;1.00;;
9938;SDS011;5008;50.656;7.188;2023-05-10T12:36:09;1.10;;;1.10;;
9938;SDS011;5008;50.656;7.188;2023-05-10T12:38:37;1.55;;;1.20;;
9938;SDS011;5008;50.656;7.188;2023-05-10T12:41:05;1.40;;;1.30;;
9938;SDS011;5008;50.656;7.188;2023-05-10T12:43:33;1.48;;;1.27;;
9938;SDS011;5008;50.656;7.188;2023-05-10T12:46:04;1.10;;;1.10;;
9938;SDS011;5008;50.656;7.188;2023-05-10T12:48:33;1.25;;;1.25;;
9938;SDS011;5008;50.656;7.188;2023-05-10T12:51:01;1.25;;;1.20;;
9938;SDS011;5008;50.656;7.188;2023-05-10T12:53:28;1.70;;;1.60;;
9938;SDS011;5008;50.656;7.188;2023-05-10T12:55:57;2.10;;;2.00;;
9938;SDS011;5008;50.656;7.188;2023-05-10T12:58:24;4.07;;;1.88;;
9938;SDS011;5008;50.656;7.188;2023-05-10T13:00:51;3.05;;;2.40;;
9938;SDS011;5008;50.656;7.188;2023-05-10T13:03:18;3.20;;;2.05;;
9938;SDS011;5008;50.656;7.188;2023-05-10T13:05:46;4.18;;;1.98;;
9938;SDS011;5008;50.656;7.188;2023-05-10T13:08:13;3.30;;;1.75;;
9938;SDS011;5008;50.656;7.188;2023-05-10T13:10:40;3.95;;;2.17;;
9938;SDS011;5008;50.656;7.188;2023-05-10T13:13:09;4.32;;;1.17;;
9938;SDS011;5008;50.656;7.188;2023-05-10T13:15:42;1.50;;;1.40;;
9938;SDS011;5008;50.656;7.188;2023-05-10T13:18:09;1.50;;;1.40;;
9938;SDS011;5008;50.656;7.188;2023-05-10T13:20:36;1.65;;;1.42;;
9938;SDS011;5008;50.656;7.188;2023-05-10T13:23:04;1.70;;;1.50;;
9938;SDS011;5008;50.656;7.188;2023-05-10T13:25:31;4.38;;;1.65;;
9938;SDS011;5008;50.656;7.188;2023-05-10T13:27:59;2.22;;;2.03;;
9938;SDS011;5008;50.656;7.188;2023-05-10T13:30:26;1.95;;;1.85;;
9938;SDS011;5008;50.656;7.188;2023-05-10T13:32:53;26.25;;;3.88;;
9938;SDS011;5008;50.656;7.188;2023-05-10T13:35:20;28.90;;;4.72;;
9938;SDS011;5008;50.656;7.188;2023-05-10T13:37:47;8.35;;;2.85;;
9938;SDS011;5008;50.656;7.188;2023-05-10T13:40:25;5.15;;;2.03;;
9938;SDS011;5008;50.656;7.188;2023-05-10T13:42:53;1.90;;;1.65;;
9938;SDS011;5008;50.656;7.188;2023-05-10T13:45:19;1.92;;;1.83;;
9938;SDS011;5008;50.656;7.188;2023-05-10T13:47:46;1.75;;;1.65;;
9938;SDS011;5008;50.656;7.188;2023-05-10T13:50:13;2.67;;;2.22;;
9938;SDS011;5008;50.656;7.188;2023-05-10T13:52:40;2.70;;;1.90;;
9938;SDS011;5008;50.656;7.188;2023-05-10T13:55:07;1.83;;;1.73;;
9938;SDS011;5008;50.656;7.188;2023-05-10T13:57:40;1.60;;;1.50;;
9938;SDS011;5008;50.656;7.188;2023-05-10T14:00:08;2.30;;;1.95;;
9938;SDS011;5008;50.656;7.188;2023-05-10T14:02:36;2.05;;;1.85;;
9938;SDS011;5008;50.656;7.188;2023-05-10T14:05:03;2.03;;;1.92;;
9938;SDS011;5008;50.656;7.188;2023-05-10T14:07:30;2.88;;;2.00;;
9938;SDS011;5008;50.656;7.188;2023-05-10T14:09:57;2.42;;;2.22;;
9938;SDS011;5008;50.656;7.188;2023-05-10T14:12:24;2.50;;;2.30;;
9938;SDS011;5008;50.656;7.188;2023-05-10T14:14:52;2.92;;;2.72;;
9938;SDS011;5008;50.656;7.188;2023-05-10T14:17:19;5.80;;;2.25;;
9938;SDS011;5008;50.656;7.188;2023-05-10T14:19:47;1.60;;;1.50;;
9938;SDS011;5008;50.656;7.188;2023-05-10T14:22:14;4.15;;;1.60;;
9938;SDS011;5008;50.656;7.188;2023-05-10T14:24:41;2.25;;;1.30;;
9938;SDS011;5008;50.656;7.188;2023-05-10T14:27:11;1.30;;;1.20;;
9938;SDS011;5008;50.656;7.188;2023-05-10T14:29:45;1.20;;;1.10;;
9938;SDS011;5008;50.656;7.188;2023-05-10T14:32:14;2.08;;;0.77;;
9938;SDS011;5008;50.656;7.188;2023-05-10T14:34:43;0.93;;;0.88;;
9938;SDS011;5008;50.656;7.188;2023-05-10T14:37:10;1.90;;;1.80;;
9938;SDS011;5008;50.656;7.188;2023-05-10T14:39:37;2.55;;;1.40;;
9938;SDS011;5008;50.656;7.188;2023-05-10T14:42:04;2.10;;;1.40;;
9938;SDS011;5008;50.656;7.188;2023-05-10T14:44:31;2.20;;;2.00;;
9938;SDS011;5008;50.656;7.188;2023-05-10T14:46:58;1.90;;;0.90;;
9938;SDS011;5008;50.656;7.188;2023-05-10T14:49:26;2.90;;;1.08;;
9938;SDS011;5008;50.656;7.188;2023-05-10T14:51:52;2.15;;;1.02;;
9938;SDS011;5008;50.656;7.188;2023-05-10T14:54:19;0.93;;;0.70;;
9938;SDS011;5008;50.656;7.188;2023-05-10T14:56:48;0.77;;;0.75;;
9938;SDS011;5008;50.656;7.188;2023-05-10T14:59:15;0.65;;;0.60;;
9938;SDS011;5008;50.656;7.188;2023-05-10T15:01:42;0.90;;;0.80;;
9938;SDS011;5008;50.656;7.188;2023-05-10T15:04:10;0.65;;;0.65;;
9938;SDS011;5008;50.656;7.188;2023-05-10T15:06:39;0.60;;;0.60;;
9938;SDS011;5008;50.656;7.188;2023-05-10T15:09:06;0.95;;;0.75;;
9938;SDS011;5008;50.656;7.188;2023-05-10T15:11:41;1.45;;;0.98;;
9938;SDS011;5008;50.656;7.188;2023-05-10T15:14:09;0.90;;;0.90;;
9938;SDS011;5008;50.656;7.188;2023-05-10T15:16:36;1.17;;;0.80;;
9938;SDS011;5008;50.656;7.188;2023-05-10T15:19:02;2.10;;;1.20;;
9938;SDS011;5008;50.656;7.188;2023-05-10T15:21:29;0.95;;;0.93;;
9938;SDS011;5008;50.656;7.188;2023-05-10T15:24:03;3.25;;;1.52;;
9938;SDS011;5008;50.656;7.188;2023-05-10T15:26:30;7.28;;;1.88;;
9938;SDS011;5008;50.656;7.188;2023-05-10T15:28:57;1.05;;;0.90;;
9938;SDS011;5008;50.656;7.188;2023-05-10T15:31:25;0.90;;;0.90;;
9938;SDS011;5008;50.656;7.188;2023-05-10T15:33:54;1.40;;;0.80;;
9938;SDS011;5008;50.656;7.188;2023-05-10T15:36:23;1.08;;;0.82;;
9938;SDS011;5008;50.656;7.188;2023-05-10T15:38:50;0.60;;;0.60;;
9938;SDS011;5008;50.656;7.188;2023-05-10T15:41:18;5.47;;;0.77;;
9938;SDS011;5008;50.656;7.188;2023-05-10T15:43:45;0.47;;;0.47;;
9938;SDS011;5008;50.656;7.188;2023-05-10T15:46:12;0.88;;;0.50;;
9938;SDS011;5008;50.656;7.188;2023-05-10T15:48:39;0.95;;;0.60;;
9938;SDS011;5008;50.656;7.188;2023-05-10T15:51:06;0.70;;;0.70;;
9938;SDS011;5008;50.656;7.188;2023-05-10T15:53:33;1.02;;;1.00;;
9938;SDS011;5008;50.656;7.188;2023-05-10T15:56:00;1.88;;;0.98;;
9938;SDS011;5008;50.656;7.188;2023-05-10T15:58:28;2.60;;;1.10;;
9938;SDS011;5008;50.656;7.188;2023-05-10T16:00:55;1.48;;;0.98;;
9938;SDS011;5008;50.656;7.188;2023-05-10T16:03:21;1.52;;;0.75;;
9938;SDS011;5008;50.656;7.188;2023-05-10T16:05:48;1.88;;;0.88;;
9938;SDS011;5008;50.656;7.188;2023-05-10T16:08:15;0.82;;;0.82;;
9938;SDS011;5008;50.656;7.188;2023-05-10T16:10:42;0.90;;;0.90;;
9938;SDS011;5008;50.656;7.188;2023-05-10T16:13:09;1.73;;;1.40;;
9938;SDS011;5008;50.656;7.188;2023-05-10T16:15:37;1.40;;;1.33;;
9938;SDS011;5008;50.656;7.188;2023-05-10T16:18:04;1.90;;;1.30;;
9938;SDS011;5008;50.656;7.188;2023-05-10T16:20:31;1.88;;;1.48;;
9938;SDS011;5008;50.656;7.188;2023-05-10T16:22:58;1.83;;;1.40;;
9938;SDS011;5008;50.656;7.188;2023-05-10T16:25:28;1.40;;;1.30;;
9938;SDS011;5008;50.656;7.188;2023-05-10T16:27:55;2.90;;;1.75;;
9938;SDS011;5008;50.656;7.188;2023-05-10T16:30:22;1.80;;;1.45;;
9938;SDS011;5008;50.656;7.188;2023-05-10T16:32:52;1.52;;;1.50;;
9938;SDS011;5008;50.656;7.188;2023-05-10T16:35:19;1.70;;;1.60;;
9938;SDS011;5008;50.656;7.188;2023-05-10T16:37:47;1.80;;;1.70;;
9938;SDS011;5008;50.656;7.188;2023-05-10T16:40:14;2.05;;;1.90;;
9938;SDS011;5008;50.656;7.188;2023-05-10T16:42:41;1.35;;;1.27;;
9938;SDS011;5008;50.656;7.188;2023-05-10T16:45:08;1.63;;;1.52;;
9938;SDS011;5008;50.656;7.188;2023-05-10T16:47:36;1.67;;;1.58;;
9938;SDS011;5008;50.656;7.188;2023-05-10T16:50:05;1.60;;;1.50;;
9938;SDS011;5008;50.656;7.188;2023-05-10T16:52:33;1.50;;;1.40;;
9938;SDS011;5008;50.656;7.188;2023-05-10T16:55:01;1.80;;;1.70;;
9938;SDS011;5008;50.656;7.188;2023-05-10T16:57:29;1.75;;;1.65;;
9938;SDS011;5008;50.656;7.188;2023-05-10T16:59:59;1.77;;;1.65;;
9938;SDS011;5008;50.656;7.188;2023-05-10T17:02:26;2.15;;;1.98;;
9938;SDS011;5008;50.656;7.188;2023-05-10T17:04:52;2.05;;;1.92;;
9938;SDS011;5008;50.656;7.188;2023-05-10T17:07:21;2.00;;;1.90;;
9938;SDS011;5008;50.656;7.188;2023-05-10T17:09:48;2.63;;;1.55;;
9938;SDS011;5008;50.656;7.188;2023-05-10T17:12:15;2.72;;;2.10;;
9938;SDS011;5008;50.656;7.188;2023-05-10T17:14:42;1.80;;;1.30;;
9938;SDS011;5008;50.656;7.188;2023-05-10T17:17:09;2.38;;;1.60;;
9938;SDS011;5008;50.656;7.188;2023-05-10T17:19:36;1.95;;;1.70;;
9938;SDS011;5008;50.656;7.188;2023-05-10T17:22:03;1.63;;;1.52;;
9938;SDS011;5008;50.656;7.188;2023-05-10T17:24:31;1.67;;;1.58;;
9938;SDS011;5008;50.656;7.188;2023-05-10T17:26:58;1.73;;;1.63;;
9938;SDS011;5008;50.656;7.188;2023-05-10T17:29:27;2.15;;;1.80;;
9938;SDS011;5008;50.656;7.188;2023-05-10T17:31:56;1.80;;;1.70;;
9938;SDS011;5008;50.656;7.188;2023-05-10T17:34:22;1.92;;;1.60;;
9938;SDS011;5008;50.656;7.188;2023-05-10T17:36:50;2.70;;;1.80;;
9938;SDS011;5008;50.656;7.188;2023-05-10T17:39:17;1.67;;;1.58;;
9938;SDS011;5008;50.656;7.188;2023-05-10T17:41:46;2.15;;;1.92;;
9938;SDS011;5008;50.656;7.188;2023-05-10T17:44:13;1.80;;;1.70;;
9938;SDS011;5008;50.656;7.188;2023-05-10T17:46:40;1.73;;;1.63;;
9938;SDS011;5008;50.656;7.188;2023-05-10T17:49:07;2.25;;;2.00;;
9938;SDS011;5008;50.656;7.188;2023-05-10T17:51:34;2.17;;;1.98;;
9938;SDS011;5008;50.656;7.188;2023-05-10T17:54:01;1.85;;;1.70;;
9938;SDS011;5008;50.656;7.188;2023-05-10T17:56:27;3.33;;;1.55;;
9938;SDS011;5008;50.656;7.188;2023-05-10T17:58:56;1.80;;;1.70;;
9938;SDS011;5008;50.656;7.188;2023-05-10T18:04:31;3.00;;;2.20;;
9938;SDS011;5008;50.656;7.188;2023-05-10T18:06:58;3.38;;;2.40;;
9938;SDS011;5008;50.656;7.188;2023-05-10T18:09:26;2.05;;;1.88;;
9938;SDS011;5008;50.656;7.188;2023-05-10T18:11:53;3.95;;;1.67;;
9938;SDS011;5008;50.656;7.188;2023-05-10T18:14:21;2.30;;;2.10;;
9938;SDS011;5008;50.656;7.188;2023-05-10T18:16:47;2.10;;;2.00;;
9938;SDS011;5008;50.656;7.188;2023-05-10T18:19:14;2.10;;;1.90;;
9938;SDS011;5008;50.656;7.188;2023-05-10T18:21:41;1.60;;;1.50;;
9938;SDS011;5008;50.656;7.188;2023-05-10T18:24:13;1.93;;;1.83;;
9938;SDS011;5008;50.656;7.188;2023-05-10T18:26:40;1.93;;;1.83;;
9938;SDS011;5008;50.656;7.188;2023-05-10T18:29:07;2.00;;;1.87;;
9938;SDS011;5008;50.656;7.188;2023-05-10T18:31:35;2.10;;;1.92;;
9938;SDS011;5008;50.656;7.188;2023-05-10T18:34:02;2.57;;;2.17;;
9938;SDS011;5008;50.656;7.188;2023-05-10T18:36:29;2.38;;;1.90;;
9938;SDS011;5008;50.656;7.188;2023-05-10T18:38:57;2.07;;;1.87;;
9938;SDS011;5008;50.656;7.188;2023-05-10T18:41:24;2.40;;;2.20;;
9938;SDS011;5008;50.656;7.188;2023-05-10T18:43:51;2.25;;;2.08;;
9938;SDS011;5008;50.656;7.188;2023-05-10T18:46:18;2.43;;;2.20;;
9938;SDS011;5008;50.656;7.188;2023-05-10T18:48:46;2.93;;;2.10;;
9938;SDS011;5008;50.656;7.188;2023-05-10T18:51:13;2.20;;;2.10;;
9938;SDS011;5008;50.656;7.188;2023-05-10T18:53:40;2.40;;;2.22;;
9938;SDS011;5008;50.656;7.188;2023-05-10T18:56:07;2.33;;;2.22;;
9938;SDS011;5008;50.656;7.188;2023-05-10T18:58:34;2.63;;;2.17;;
9938;SDS011;5008;50.656;7.188;2023-05-10T19:01:00;2.50;;;2.30;;
9938;SDS011;5008;50.656;7.188;2023-05-10T19:03:27;2.60;;;2.40;;
9938;SDS011;5008;50.656;7.188;2023-05-10T19:05:56;3.40;;;3.10;;
9938;SDS011;5008;50.656;7.188;2023-05-10T19:08:23;2.85;;;2.65;;
9938;SDS011;5008;50.656;7.188;2023-05-10T19:10:49;2.63;;;2.40;;
9938;SDS011;5008;50.656;7.188;2023-05-10T19:13:16;2.53;;;2.33;;
9938;SDS011;5008;50.656;7.188;2023-05-10T19:15:43;2.83;;;2.45;;
9938;SDS011;5008;50.656;7.188;2023-05-10T19:18:10;2.72;;;2.50;;